CDT,Max TemperatureF,Mean TemperatureF,Min TemperatureF,Max Dew PointF,MeanDew PointF,Min DewpointF,Max Humidity, Mean Humidity, Min Humidity, Max Sea Level PressureIn, Mean Sea Level PressureIn, Min Sea Level PressureIn, Max VisibilityMiles, Mean VisibilityMiles, Min VisibilityMiles, Max Wind SpeedMPH, Mean Wind SpeedMPH, Max Gust SpeedMPH,PrecipitationIn, CloudCover, Events, WindDirDegrees
2013-4-1,51,45,37,37,25,16,65,46,29,30.23,30.13,29.94,10,10,10,15,7,18,0.00,3,,352
2013-4-2,48,38,28,21,18,12,64,44,27,30.34,30.29,30.23,10,10,10,9,4,,0.00,0,,28
2013-4-3,51,40,28,25,21,18,80,49,30,30.38,30.30,30.24,10,10,10,17,5,21,0.00,0,,53
2013-4-4,59,42,26,27,22,19,86,45,23,30.24,30.12,30.04,10,10,10,10,4,,0.00,1,,31
2013-4-5,68,49,30,37,32,25,87,53,30,30.18,30.11,30.07,10,10,10,10,2,,0.00,0,,52
2013-4-6,71,60,48,41,37,34,62,43,27,30.07,29.95,29.82,10,10,10,25,12,41,0.00,0,,181
2013-4-7,77,65,53,55,48,41,73,56,36,29.96,29.91,29.86,10,10,7,23,10,29,0.00,2,,185
2013-4-8,73,66,59,57,54,50,77,66,53,29.91,29.86,29.81,10,10,8,18,13,26,0.00,4,,179
2013-4-9,77,68,59,61,57,54,82,69,50,29.97,29.90,29.86,10,10,5,22,9,28,0.00,4,,169
2013-4-10,80,70,60,66,63,57,94,76,57,29.88,29.79,29.67,10,10,3,22,13,29,1.22,5,Thunderstorm,179
2013-4-11,62,50,39,59,39,28,94,76,50,29.79,29.73,29.69,10,10,3,16,8,23,0.01,7,,279
2013-4-12,53,44,35,30,29,27,75,59,41,30.06,29.88,29.76,10,10,10,20,7,28,0.00,1,,278
2013-4-13,66,48,30,39,33,27,93,61,34,30.10,30.02,29.93,10,10,8,14,3,18,0.00,0,,174
2013-4-14,75,62,48,54,45,37,71,57,34,29.94,29.80,29.68,10,10,10,28,11,36,0.00,2,,167
2013-4-15,75,66,57,61,56,52,88,75,60,29.92,29.85,29.79,10,10,10,16,11,24,0.00,6,,171
2013-4-16,66,57,48,61,48,45,94,87,82,30.13,30.06,29.89,10,6,0,15,8,21,0.00,8,Thunderstorm,17
2013-4-17,82,65,48,66,57,46,100,78,48,30.12,29.98,29.78,10,6,0,25,8,33,0.00,6,,148
2013-4-18,73,57,39,64,55,28,94,82,65,29.81,29.72,29.65,10,10,2,30,18,37,1.64,8,Thunderstorm,223
2013-4-19,51,44,35,28,25,18,75,51,28,30.10,29.94,29.80,10,10,10,17,12,30,0.01,5,,271
2013-4-20,59,44,30,34,29,25,93,58,31,30.33,30.23,30.10,10,10,10,9,2,,0.00,0,,69
2013-4-21,64,52,39,37,34,28,75,53,34,30.42,30.34,30.25,10,10,10,13,6,,0.00,0,,110
2013-4-22,71,54,37,45,39,30,87,54,31,30.29,30.16,30.03,10,10,10,17,5,26,0.00,1,,158
2013-4-23,62,50,39,57,47,36,94,79,59,30.05,29.97,29.86,10,9,2,16,6,25,0.32,6,Thunderstorm,217
2013-4-24,53,45,37,36,31,25,93,68,33,30.28,30.15,30.00,10,10,7,17,11,29,0.44,4,Thunderstorm,301
2013-4-25,66,48,30,39,33,25,87,55,30,30.37,30.32,30.28,10,10,10,15,4,23,0.00,0,,268
2013-4-26,51,48,46,46,43,37,93,79,58,30.44,30.34,30.29,10,10,7,16,5,20,0.48,6,,151
2013-4-27,53,50,46,52,49,45,100,92,87,30.31,30.10,29.96,10,7,1,13,6,17,0.42,8,,100
2013-4-28,60,53,46,52,48,45,100,82,63,30.01,29.96,29.93,10,10,3,12,6,17,0.01,6,,288
2013-4-29,75,58,42,57,52,41,100,75,50,29.99,29.93,29.86,10,9,0,15,6,20,0.00,0,,170
2013-4-30,82,70,57,57,54,50,88,60,35,30.00,29.93,29.88,10,10,10,18,9,23,0.00,0,,172